createdAt,value
2018-12-30T00:01:43.333Z,20.93
2018-12-30T00:04:11.685Z,24.87
2018-12-30T00:06:40.289Z,22.60
2018-12-30T00:09:08.944Z,26.13
2018-12-30T00:11:37.642Z,23.73
2018-12-30T00:14:05.892Z,22.80
2018-12-30T00:16:34.080Z,25.23
2018-12-30T00:19:02.325Z,27.13
2018-12-30T00:21:30.612Z,26.53
2018-12-30T00:23:58.872Z,22.30
2018-12-30T00:26:27.155Z,23.43
2018-12-30T00:28:55.481Z,23.70
2018-12-30T00:31:23.716Z,24.10
2018-12-30T00:33:51.926Z,25.00
2018-12-30T00:36:20.214Z,24.63
2018-12-30T00:38:48.468Z,20.80
2018-12-30T00:41:16.688Z,23.03
2018-12-30T00:43:45.289Z,22.77
2018-12-30T00:46:13.552Z,22.10
2018-12-30T00:48:41.812Z,24.57
2018-12-30T00:51:16.829Z,20.50
2018-12-30T00:53:39.883Z,26.10
2018-12-30T00:56:08.117Z,22.13
2018-12-30T00:58:36.516Z,23.57
2018-12-30T01:01:04.801Z,25.37
2018-12-30T01:03:33.130Z,27.53
2018-12-30T01:06:01.384Z,26.33
2018-12-30T01:08:29.678Z,23.10
2018-12-30T01:10:58.040Z,25.70
2018-12-30T01:13:26.333Z,27.70
2018-12-30T01:15:54.596Z,28.80
2018-12-30T01:18:22.860Z,25.77
2018-12-30T01:20:51.049Z,23.10
2018-12-30T01:23:19.265Z,24.00
2018-12-30T01:25:47.561Z,24.37
2018-12-30T01:28:15.881Z,23.83
2018-12-30T01:30:44.197Z,25.10
2018-12-30T01:33:12.388Z,23.97
2018-12-30T01:35:40.621Z,24.93
2018-12-30T01:38:08.897Z,21.67
2018-12-30T01:40:37.405Z,22.37
2018-12-30T01:43:05.706Z,26.70
2018-12-30T01:45:33.989Z,21.43
2018-12-30T01:48:02.278Z,22.90
2018-12-30T01:50:30.536Z,22.80
2018-12-30T01:52:58.720Z,22.77
2018-12-30T01:55:26.988Z,22.27
2018-12-30T01:57:55.205Z,22.57
2018-12-30T02:00:23.517Z,23.13
2018-12-30T02:02:51.804Z,20.47
2018-12-30T02:05:20.101Z,20.90
2018-12-30T02:07:48.664Z,28.10
2018-12-30T02:10:16.852Z,24.90
2018-12-30T02:12:45.031Z,22.57
2018-12-30T02:15:13.275Z,19.43
2018-12-30T02:17:41.534Z,24.67
2018-12-30T02:20:09.712Z,18.47
2018-12-30T02:22:37.933Z,19.70
2018-12-30T02:25:06.227Z,18.43
2018-12-30T02:27:34.504Z,17.40
2018-12-30T02:30:02.737Z,19.77
2018-12-30T02:32:31.041Z,15.37
2018-12-30T02:34:59.291Z,18.40
2018-12-30T02:37:27.500Z,19.23
2018-12-30T02:39:55.681Z,21.13
2018-12-30T02:42:23.965Z,17.43
2018-12-30T02:44:52.184Z,17.40
2018-12-30T02:47:20.641Z,14.63
2018-12-30T02:49:48.849Z,11.87
2018-12-30T02:52:17.107Z,15.53
2018-12-30T02:54:45.317Z,10.00
2018-12-30T02:57:13.573Z,11.80
2018-12-30T02:59:42.261Z,13.40
2018-12-30T03:02:10.517Z,11.73
2018-12-30T03:04:38.725Z,10.20
2018-12-30T03:07:06.964Z,9.87
2018-12-30T03:09:35.148Z,9.70
2018-12-30T03:12:03.799Z,9.07
2018-12-30T03:14:32.036Z,8.05
2018-12-30T03:17:00.251Z,7.80
2018-12-30T03:19:28.522Z,8.87
2018-12-30T03:21:59.210Z,5.30
2018-12-30T03:24:26.608Z,5.10
2018-12-30T03:26:54.784Z,5.27
2018-12-30T03:29:22.992Z,6.33
2018-12-30T03:31:51.267Z,4.67
2018-12-30T03:34:19.509Z,5.17
2018-12-30T03:36:47.737Z,3.70
2018-12-30T03:39:15.935Z,3.90
2018-12-30T03:41:44.144Z,5.97
2018-12-30T03:44:12.413Z,3.70
2018-12-30T03:46:40.580Z,4.50
2018-12-30T03:49:08.784Z,3.50
2018-12-30T03:51:36.997Z,3.50
2018-12-30T03:54:05.169Z,2.27
2018-12-30T03:56:33.412Z,2.73
2018-12-30T03:59:01.579Z,2.00
2018-12-30T04:01:29.786Z,3.07
2018-12-30T04:03:57.966Z,3.60
2018-12-30T04:06:26.140Z,2.17
2018-12-30T04:08:54.342Z,2.93
2018-12-30T04:11:22.523Z,1.83
2018-12-30T04:13:50.695Z,2.03
2018-12-30T04:16:18.916Z,3.50
2018-12-30T04:18:47.085Z,12.80
2018-12-30T04:21:15.303Z,3.80
2018-12-30T04:23:43.512Z,3.90
2018-12-30T04:26:11.714Z,3.80
2018-12-30T04:28:39.956Z,6.80
2018-12-30T04:31:08.139Z,4.40
2018-12-30T04:33:36.350Z,4.07
2018-12-30T04:36:04.604Z,7.67
2018-12-30T04:38:32.818Z,8.53
2018-12-30T04:41:01.131Z,6.50
2018-12-30T04:43:29.389Z,4.50
2018-12-30T04:45:57.598Z,3.43
2018-12-30T04:48:25.769Z,5.70
2018-12-30T04:50:53.977Z,6.67
2018-12-30T04:53:22.153Z,8.30
2018-12-30T04:55:50.358Z,4.47
2018-12-30T04:58:18.572Z,4.33
2018-12-30T05:00:46.765Z,8.10
2018-12-30T05:03:14.969Z,4.03
2018-12-30T05:05:43.616Z,3.57
2018-12-30T05:08:11.826Z,4.37
2018-12-30T05:10:40.000Z,3.63
2018-12-30T05:13:08.168Z,1.90
2018-12-30T05:15:36.352Z,2.50
2018-12-30T05:18:04.523Z,2.07
2018-12-30T05:20:32.791Z,1.70
2018-12-30T05:23:01.028Z,1.63
2018-12-30T05:25:29.228Z,2.67
2018-12-30T05:27:57.457Z,1.47
2018-12-30T05:30:25.640Z,1.80
2018-12-30T05:32:53.857Z,1.70
2018-12-30T05:35:22.038Z,1.40
2018-12-30T05:37:50.211Z,1.20
2018-12-30T05:40:18.433Z,1.50
2018-12-30T05:42:46.701Z,1.80
2018-12-30T05:45:14.868Z,1.30
2018-12-30T05:47:43.056Z,1.40
2018-12-30T05:50:11.273Z,3.10
2018-12-30T05:52:42.007Z,1.97
2018-12-30T05:55:09.373Z,1.53
2018-12-30T05:57:37.596Z,1.33
2018-12-30T06:00:07.129Z,3.20
2018-12-30T06:02:35.341Z,1.37
2018-12-30T06:05:03.717Z,1.40
2018-12-30T06:07:31.960Z,1.10
2018-12-30T06:10:00.161Z,1.40
2018-12-30T06:12:28.425Z,2.90
2018-12-30T06:14:56.607Z,2.03
2018-12-30T06:17:24.807Z,2.23
2018-12-30T06:19:53.088Z,2.40
2018-12-30T06:22:21.252Z,1.00
2018-12-30T06:24:49.453Z,3.43
2018-12-30T06:27:17.631Z,1.83
2018-12-30T06:29:45.852Z,1.00
2018-12-30T06:32:14.043Z,2.50
2018-12-30T06:34:42.985Z,1.47
2018-12-30T06:37:11.173Z,1.83
2018-12-30T06:39:39.370Z,1.13
2018-12-30T06:42:07.653Z,1.60
2018-12-30T06:44:35.816Z,2.40
2018-12-30T06:47:03.989Z,1.50
2018-12-30T06:49:32.204Z,1.70
2018-12-30T06:52:00.376Z,3.97
2018-12-30T06:54:28.585Z,2.23
2018-12-30T06:56:56.797Z,3.93
2018-12-30T06:59:25.015Z,2.40
2018-12-30T07:01:53.180Z,2.67
2018-12-30T07:04:23.976Z,2.70
2018-12-30T07:06:52.168Z,6.00
2018-12-30T07:09:20.397Z,3.10
2018-12-30T07:11:48.632Z,5.87
2018-12-30T07:14:16.837Z,7.70
2018-12-30T07:16:45.011Z,4.17
2018-12-30T07:19:13.188Z,5.13
2018-12-30T07:21:41.393Z,5.30
2018-12-30T07:24:09.596Z,5.63
2018-12-30T07:26:37.844Z,4.30
2018-12-30T07:29:06.017Z,5.33
2018-12-30T07:31:34.236Z,6.30
2018-12-30T07:34:02.437Z,3.73
2018-12-30T07:36:30.609Z,6.50
2018-12-30T07:38:58.790Z,7.10
2018-12-30T07:41:26.990Z,7.83
2018-12-30T07:43:55.194Z,7.27
2018-12-30T07:46:23.396Z,4.10
2018-12-30T07:48:51.600Z,5.67
2018-12-30T07:51:19.844Z,5.77
2018-12-30T07:53:48.070Z,6.20
2018-12-30T07:56:16.269Z,5.33
2018-12-30T07:58:44.443Z,4.10
2018-12-30T08:01:12.658Z,5.30
2018-12-30T08:03:40.831Z,8.40
2018-12-30T08:06:09.041Z,4.00
2018-12-30T08:08:37.245Z,3.20
2018-12-30T08:11:05.449Z,11.60
2018-12-30T08:13:33.630Z,6.80
2018-12-30T08:16:01.906Z,4.40
2018-12-30T08:18:30.133Z,7.37
2018-12-30T08:20:58.304Z,4.60
2018-12-30T08:23:26.510Z,5.37
2018-12-30T08:25:54.716Z,6.13
2018-12-30T08:28:25.133Z,4.03
2018-12-30T08:30:52.806Z,5.80
2018-12-30T08:33:21.036Z,5.60
2018-12-30T08:35:49.342Z,3.20
2018-12-30T08:38:17.511Z,5.83
2018-12-30T08:40:45.695Z,2.60
2018-12-30T08:43:13.924Z,2.30
2018-12-30T08:45:42.164Z,6.00
2018-12-30T08:48:10.381Z,10.73
2018-12-30T08:50:38.572Z,3.30
2018-12-30T08:53:06.780Z,4.60
2018-12-30T08:55:34.985Z,3.93
2018-12-30T08:58:03.185Z,4.40
2018-12-30T09:00:31.368Z,4.33
2018-12-30T09:02:59.601Z,5.10
2018-12-30T09:05:27.816Z,12.70
2018-12-30T09:07:56.090Z,2.70
2018-12-30T09:10:24.325Z,3.20
2018-12-30T09:12:52.494Z,4.67
2018-12-30T09:15:20.668Z,3.10
2018-12-30T09:17:48.848Z,3.60
2018-12-30T09:20:17.052Z,4.97
2018-12-30T09:22:45.292Z,4.00
2018-12-30T09:25:13.559Z,3.73
2018-12-30T09:27:41.732Z,6.63
2018-12-30T09:30:09.950Z,6.27
2018-12-30T09:32:38.153Z,4.57
2018-12-30T09:35:06.430Z,4.67
2018-12-30T09:37:34.601Z,5.63
2018-12-30T09:40:02.784Z,5.00
2018-12-30T09:42:31.000Z,3.10
2018-12-30T09:44:59.164Z,3.63
2018-12-30T09:47:27.384Z,9.03
2018-12-30T09:49:55.658Z,9.63
2018-12-30T09:52:23.922Z,8.70
2018-12-30T09:54:52.111Z,3.10
2018-12-30T09:57:20.322Z,7.33
2018-12-30T09:59:48.578Z,3.97
2018-12-30T10:02:16.869Z,5.63
2018-12-30T10:04:45.068Z,5.40
2018-12-30T10:07:13.278Z,14.97
2018-12-30T10:09:41.500Z,6.53
2018-12-30T10:12:09.698Z,8.83
2018-12-30T10:14:37.876Z,6.70
2018-12-30T10:17:11.732Z,5.30
2018-12-30T10:19:40.021Z,6.30
2018-12-30T10:22:09.237Z,9.27
2018-12-30T10:24:37.437Z,8.53
2018-12-30T10:27:05.644Z,4.70
2018-12-30T10:29:33.853Z,4.67
2018-12-30T10:32:02.049Z,6.93
2018-12-30T10:34:30.260Z,6.87
2018-12-30T10:36:58.424Z,7.30
2018-12-30T10:39:26.637Z,6.13
2018-12-30T10:41:54.853Z,11.93
2018-12-30T10:44:25.600Z,6.60
2018-12-30T10:46:53.817Z,11.83
2018-12-30T10:49:22.023Z,6.30
2018-12-30T10:51:50.200Z,4.97
2018-12-30T10:54:18.404Z,4.30
2018-12-30T10:56:46.595Z,5.80
2018-12-30T10:59:14.781Z,4.63
2018-12-30T11:01:42.964Z,3.63
2018-12-30T11:04:11.164Z,4.10
2018-12-30T11:06:39.361Z,5.63
2018-12-30T11:09:07.608Z,6.70
2018-12-30T11:11:35.861Z,6.33
2018-12-30T11:14:04.077Z,5.33
2018-12-30T11:16:32.280Z,6.30
2018-12-30T11:19:00.491Z,4.77
2018-12-30T11:21:28.693Z,5.73
2018-12-30T11:23:56.904Z,8.90
2018-12-30T11:26:25.099Z,5.97
2018-12-30T11:28:53.276Z,3.57
2018-12-30T11:31:21.459Z,5.63
2018-12-30T11:33:49.620Z,8.67
2018-12-30T11:36:17.836Z,6.80
2018-12-30T11:38:46.003Z,8.37
2018-12-30T11:41:14.180Z,7.77
2018-12-30T11:43:42.364Z,11.53
2018-12-30T11:46:10.538Z,5.23
2018-12-30T11:48:38.726Z,4.30
2018-12-30T11:51:06.939Z,7.27
2018-12-30T11:53:35.146Z,4.63
2018-12-30T11:56:03.344Z,12.63
2018-12-30T11:58:31.545Z,6.40
2018-12-30T12:00:59.792Z,4.43
2018-12-30T12:03:27.976Z,5.43
2018-12-30T12:05:56.177Z,6.80
2018-12-30T12:08:24.369Z,7.90
2018-12-30T12:10:52.578Z,5.33
2018-12-30T12:13:20.778Z,6.87
2018-12-30T12:15:49.062Z,3.90
2018-12-30T12:18:17.308Z,6.93
2018-12-30T12:20:45.544Z,8.20
2018-12-30T12:23:13.729Z,5.20
2018-12-30T12:25:41.895Z,4.73
2018-12-30T12:28:10.424Z,7.90
2018-12-30T12:30:38.629Z,5.03
2018-12-30T12:33:06.830Z,3.83
2018-12-30T12:35:35.013Z,6.50
2018-12-30T12:38:03.176Z,4.63
2018-12-30T12:40:31.396Z,3.97
2018-12-30T12:42:59.685Z,6.30
2018-12-30T12:45:27.860Z,8.37
2018-12-30T12:47:57.041Z,4.30
2018-12-30T12:50:25.251Z,8.60
2018-12-30T12:52:53.502Z,8.60
2018-12-30T12:55:21.740Z,6.50
2018-12-30T12:57:49.961Z,6.83
2018-12-30T13:00:18.196Z,8.47
2018-12-30T13:02:46.426Z,7.80
2018-12-30T13:05:14.629Z,5.33
2018-12-30T13:07:42.892Z,8.03
2018-12-30T13:10:11.105Z,7.17
2018-12-30T13:12:39.282Z,3.20
2018-12-30T13:15:08.379Z,5.10
2018-12-30T13:17:37.078Z,6.43
2018-12-30T13:20:05.285Z,7.20
2018-12-30T13:22:33.465Z,4.47
2018-12-30T13:25:01.648Z,7.03
2018-12-30T13:27:29.866Z,6.10
2018-12-30T13:29:58.069Z,12.73
2018-12-30T13:32:26.281Z,4.43
2018-12-30T13:34:55.825Z,7.50
2018-12-30T13:37:24.041Z,3.70
2018-12-30T13:39:52.241Z,9.40
2018-12-30T13:42:20.441Z,5.67
2018-12-30T13:44:48.673Z,5.43
2018-12-30T13:47:16.872Z,6.67
2018-12-30T13:49:45.108Z,5.13
2018-12-30T13:52:13.293Z,6.70
2018-12-30T13:54:47.555Z,10.27
2018-12-30T13:57:11.433Z,6.00
2018-12-30T13:59:40.450Z,4.23
2018-12-30T14:02:08.688Z,5.23
2018-12-30T14:04:36.942Z,4.00
2018-12-30T14:07:05.117Z,10.90
2018-12-30T14:09:33.300Z,6.00
2018-12-30T14:12:01.558Z,8.90
2018-12-30T14:14:29.724Z,8.77
2018-12-30T14:16:57.926Z,7.10
2018-12-30T14:19:26.131Z,7.33
2018-12-30T14:21:54.304Z,6.87
2018-12-30T14:24:24.932Z,3.60
2018-12-30T14:26:59.803Z,5.03
2018-12-30T14:29:22.988Z,8.00
2018-12-30T14:31:51.165Z,5.50
2018-12-30T14:34:19.348Z,7.87
2018-12-30T14:36:47.528Z,9.90
2018-12-30T14:39:15.773Z,6.63
2018-12-30T14:41:43.970Z,6.37
2018-12-30T14:44:12.169Z,6.67
2018-12-30T14:46:40.386Z,12.43
2018-12-30T14:49:08.589Z,7.83
2018-12-30T14:51:36.810Z,5.23
2018-12-30T14:54:05.005Z,9.60
2018-12-30T14:56:33.263Z,8.20
2018-12-30T14:59:01.428Z,4.45
2018-12-30T15:01:29.654Z,7.10
2018-12-30T15:03:57.840Z,8.87
2018-12-30T15:06:26.013Z,5.67
2018-12-30T15:08:54.200Z,6.37
2018-12-30T15:11:22.377Z,6.17
2018-12-30T15:13:50.586Z,8.50
2018-12-30T15:16:18.760Z,3.90
2018-12-30T15:18:46.985Z,6.20
2018-12-30T15:21:15.188Z,6.93
2018-12-30T15:23:43.358Z,9.17
2018-12-30T15:26:11.565Z,5.80
2018-12-30T15:28:39.769Z,7.17
2018-12-30T15:31:07.976Z,5.50
2018-12-30T15:33:36.277Z,8.07
2018-12-30T15:36:04.518Z,9.03
2018-12-30T15:38:32.723Z,8.30
2018-12-30T15:41:00.935Z,9.50
2018-12-30T15:43:29.119Z,10.20
2018-12-30T15:45:57.333Z,13.90
2018-12-30T15:48:25.536Z,11.10
2018-12-30T15:50:53.722Z,7.80
2018-12-30T15:53:21.916Z,9.90
2018-12-30T15:55:50.091Z,8.17
2018-12-30T15:58:18.272Z,9.17
2018-12-30T16:00:46.509Z,16.70
2018-12-30T16:03:14.720Z,10.60
2018-12-30T16:05:42.912Z,10.73
2018-12-30T16:08:11.085Z,7.33
2018-12-30T16:10:39.301Z,12.00
2018-12-30T16:13:07.476Z,11.60
2018-12-30T16:15:35.672Z,8.53
2018-12-30T16:18:03.941Z,8.80
2018-12-30T16:20:32.132Z,14.50
2018-12-30T16:23:00.348Z,12.93
2018-12-30T16:25:28.525Z,7.57
2018-12-30T16:27:56.696Z,7.37
2018-12-30T16:30:24.876Z,16.47
2018-12-30T16:32:53.105Z,11.47
2018-12-30T16:35:21.310Z,7.63
2018-12-30T16:37:49.595Z,8.67
2018-12-30T16:40:17.880Z,8.37
2018-12-30T16:42:46.117Z,12.33
2018-12-30T16:45:14.321Z,14.73
2018-12-30T16:47:42.492Z,7.40
2018-12-30T16:50:10.713Z,10.07
2018-12-30T16:52:38.950Z,10.23
2018-12-30T16:55:07.153Z,9.87
2018-12-30T16:57:35.328Z,14.13
2018-12-30T17:00:04.625Z,16.30
2018-12-30T17:02:32.804Z,11.90
2018-12-30T17:05:00.985Z,11.27
2018-12-30T17:07:29.202Z,13.30
2018-12-30T17:09:57.407Z,7.50
2018-12-30T17:12:25.567Z,9.57
2018-12-30T17:14:53.780Z,10.70
2018-12-30T17:17:21.960Z,13.30
2018-12-30T17:19:50.189Z,15.10
2018-12-30T17:22:18.409Z,10.00
2018-12-30T17:24:46.636Z,9.33
2018-12-30T17:27:14.808Z,11.60
2018-12-30T17:29:43.193Z,9.80
2018-12-30T17:32:11.443Z,15.10
2018-12-30T17:34:39.632Z,10.03
2018-12-30T17:37:07.812Z,11.20
2018-12-30T17:39:36.000Z,11.63
2018-12-30T17:42:05.872Z,10.57
2018-12-30T17:44:34.061Z,10.60
2018-12-30T17:47:02.265Z,7.87
2018-12-30T17:49:30.448Z,13.80
2018-12-30T17:51:58.662Z,6.20
2018-12-30T17:54:26.869Z,11.40
2018-12-30T17:56:55.078Z,7.20
2018-12-30T17:59:23.249Z,10.73
2018-12-30T18:01:51.465Z,10.57
2018-12-30T18:04:19.656Z,13.10
2018-12-30T18:06:47.839Z,15.23
2018-12-30T18:09:16.076Z,11.30
2018-12-30T18:11:44.260Z,7.30
2018-12-30T18:14:12.466Z,8.27
2018-12-30T18:16:40.644Z,6.27
2018-12-30T18:19:08.886Z,9.27
2018-12-30T18:21:37.087Z,7.63
2018-12-30T18:24:05.251Z,8.23
2018-12-30T18:26:37.760Z,12.57
2018-12-30T18:29:03.315Z,11.00
2018-12-30T18:31:31.580Z,10.20
2018-12-30T18:33:59.793Z,12.33
2018-12-30T18:36:27.964Z,12.23
2018-12-30T18:38:56.191Z,7.30
2018-12-30T18:41:24.375Z,14.50
2018-12-30T18:43:52.560Z,9.23
2018-12-30T18:46:20.769Z,11.30
2018-12-30T18:48:48.957Z,14.37
2018-12-30T18:51:17.137Z,7.60
2018-12-30T18:53:45.357Z,17.20
2018-12-30T18:56:13.561Z,8.83
2018-12-30T18:58:41.768Z,12.43
2018-12-30T19:01:09.985Z,13.43
2018-12-30T19:03:38.210Z,10.27
2018-12-30T19:06:06.409Z,6.53
2018-12-30T19:08:34.617Z,9.10
2018-12-30T19:11:02.989Z,10.30
2018-12-30T19:13:31.193Z,14.83
2018-12-30T19:15:59.438Z,9.93
2018-12-30T19:18:27.638Z,10.47
2018-12-30T19:20:55.836Z,7.63
2018-12-30T19:23:24.044Z,7.40
2018-12-30T19:25:52.236Z,15.30
2018-12-30T19:28:20.420Z,7.17
2018-12-30T19:30:48.600Z,6.67
2018-12-30T19:33:16.777Z,7.53
2018-12-30T19:35:44.992Z,12.15
2018-12-30T19:38:13.197Z,7.13
2018-12-30T19:40:41.469Z,11.90
2018-12-30T19:43:09.728Z,11.10
2018-12-30T19:45:37.904Z,9.53
2018-12-30T19:48:06.084Z,8.63
2018-12-30T19:50:34.295Z,18.10
2018-12-30T19:53:02.508Z,12.07
2018-12-30T19:55:30.680Z,8.63
2018-12-30T19:57:58.856Z,9.77
2018-12-30T20:00:27.047Z,15.70
2018-12-30T20:02:55.264Z,9.60
2018-12-30T20:05:23.473Z,8.40
2018-12-30T20:07:51.648Z,10.27
2018-12-30T20:10:19.833Z,17.33
2018-12-30T20:12:48.041Z,14.73
2018-12-30T20:15:16.224Z,11.50
2018-12-30T20:17:44.437Z,10.73
2018-12-30T20:22:52.444Z,13.97
2018-12-30T20:25:20.652Z,9.60
2018-12-30T20:27:48.853Z,15.73
2018-12-30T20:30:17.040Z,12.77
2018-12-30T20:32:45.248Z,14.73
2018-12-30T20:35:13.453Z,17.27
2018-12-30T20:37:41.685Z,16.63
2018-12-30T20:40:09.884Z,10.13
2018-12-30T20:42:38.062Z,12.70
2018-12-30T20:45:06.249Z,10.37
2018-12-30T20:47:34.468Z,14.10
2018-12-30T20:50:02.724Z,8.93
2018-12-30T20:52:30.902Z,10.35
2018-12-30T20:54:59.092Z,20.00
2018-12-30T20:57:27.319Z,10.20
2018-12-30T20:59:55.542Z,13.95
2018-12-30T21:02:23.749Z,11.85
2018-12-30T21:04:52.126Z,10.87
2018-12-30T21:07:20.336Z,12.30
2018-12-30T21:09:48.549Z,16.50
2018-12-30T21:12:16.753Z,9.60
2018-12-30T21:14:44.932Z,14.47
2018-12-30T21:17:13.130Z,11.77
2018-12-30T21:19:41.341Z,18.33
2018-12-30T21:22:09.524Z,12.10
2018-12-30T21:24:37.734Z,11.67
2018-12-30T21:27:05.923Z,9.40
2018-12-30T21:29:34.116Z,11.10
2018-12-30T21:32:02.295Z,11.10
2018-12-30T21:34:30.513Z,10.77
2018-12-30T21:36:58.802Z,12.10
2018-12-30T21:39:27.066Z,9.17
2018-12-30T21:41:55.303Z,11.10
2018-12-30T21:44:26.250Z,13.73
2018-12-30T21:46:54.544Z,16.77
2018-12-30T21:49:22.716Z,9.90
2018-12-30T21:51:50.927Z,22.07
2018-12-30T21:54:19.117Z,14.83
2018-12-30T21:56:54.549Z,8.83
2018-12-30T21:59:17.204Z,13.50
2018-12-30T22:01:45.404Z,10.70
2018-12-30T22:04:13.604Z,10.20
2018-12-30T22:06:41.795Z,12.47
2018-12-30T22:09:09.981Z,9.77
2018-12-30T22:11:38.185Z,13.70
2018-12-30T22:14:06.373Z,17.93
2018-12-30T22:16:34.580Z,10.13
2018-12-30T22:19:02.879Z,11.87
2018-12-30T22:21:31.175Z,12.27
2018-12-30T22:23:59.451Z,19.33
2018-12-30T22:26:27.625Z,17.50
2018-12-30T22:28:57.240Z,11.63
2018-12-30T22:31:25.633Z,16.67
2018-12-30T22:33:53.812Z,18.87
2018-12-30T22:36:22.161Z,16.50
2018-12-30T22:38:52.790Z,13.50
2018-12-30T22:41:20.257Z,14.47
2018-12-30T22:43:48.477Z,15.03
2018-12-30T22:46:16.696Z,17.53
2018-12-30T22:48:44.868Z,16.00
2018-12-30T22:51:13.988Z,16.33
2018-12-30T22:53:42.198Z,12.80
2018-12-30T22:56:10.383Z,15.53
2018-12-30T22:58:38.603Z,18.23
2018-12-30T23:01:08.073Z,20.00
2018-12-30T23:03:36.270Z,11.90
2018-12-30T23:06:04.504Z,16.53
2018-12-30T23:08:32.713Z,18.13
2018-12-30T23:11:00.901Z,11.80
2018-12-30T23:13:29.100Z,16.57
2018-12-30T23:15:57.313Z,29.63
2018-12-30T23:18:25.491Z,20.17
2018-12-30T23:20:53.708Z,16.87
2018-12-30T23:23:21.887Z,15.87
2018-12-30T23:25:50.107Z,21.10
2018-12-30T23:28:18.316Z,16.60
2018-12-30T23:30:46.513Z,17.33
2018-12-30T23:33:14.742Z,25.07
2018-12-30T23:35:43.012Z,20.03
2018-12-30T23:38:11.229Z,17.13
2018-12-30T23:40:39.437Z,14.00
2018-12-30T23:43:07.628Z,22.53
2018-12-30T23:45:35.812Z,16.70
2018-12-30T23:48:04.029Z,16.63
2018-12-30T23:50:32.219Z,14.33
2018-12-30T23:53:00.429Z,29.20
2018-12-30T23:55:28.641Z,22.30
2018-12-30T23:57:56.849Z,19.50
